KLFK/LFK METAR and TAF weather

Enter ICAO airport designator
Station Type Date Time Source
KLFK METAR 2019/10/15 22:12 UTC NOAA

KLFK 152212Z AUTO 00000KT 10SM -RA FEW050 SCT065 BKN100 26/23 A2985 RMK AO2 LTG DSNT S AND SW P0000 T02560233


Station Type Date Time Source
KLFK Decoded METAR 2019/10/15 22:12 UTC NOAA

LUFKIN ANGELINA COUNTY AIRPORT , TX, United States (KLFK) 31-14N 94-45W 88M
Oct 15, 2019 - 06:12 PM EDT / 2019.10.15 2212 UTC
Wind: Calm:0
Visibility: 10 mile(s):0
Sky conditions: mostly cloudy
Weather: light rain; Lightning observed
Precipitation last hour: A trace
Temperature: 78.1 F (25.6 C)
Dew Point: 73.9 F (23.3 C)
Relative Humidity: 87%
Pressure (altimeter): 29.85 in. Hg (1010 hPa)
ob: KLFK 152212Z AUTO 00000KT 10SM -RA FEW050 SCT065 BKN100 26/23 A2985 RMK AO2 LTG DSNT S AND SW P0000 T02560233
cycle: 22

Station Type Date Time Source
KLFK TAF 2019/10/15 22:45 UTC NOAA

TAF
AMD KLFK 152143Z 1522/1618 24007KT P6SM VCTS SCT010 BKN035CB OVC100
TEMPO 1522/1524 5SM -TSRA BR BKN025CB OVC035
FM160000 18005KT 6SM BR VCSH OVC025
FM160600 23004KT 2SM BR VCTS BKN005 OVC010CB
TEMPO 1607/1610 3SM TSRA BR OVC005CB
FM161200 29008KT 4SM BR OVC005
FM161600 36010KT P6SM OVC035

Example: see airport list